CMB852 Details

Departure: Yokota AFB (RJTY)
Arrival: Paya Lebar Airport (WSAP) at N/A
Route: XAC V18 MOE KARTA BUBDO MDE JOM M767 TOMAN
Notes: USTRANSCOM CONTRACT FLIGHT


Current Weather Information
RJTY 251156Z AUTO 22007KT 10SM BKN110 25/21 A2989 RMK AO2 SLP118 T02470208 10296 20245 51013 FZRANO $
WSAP 251100Z 20006KT 8000 FEW018 BKN150 31/24 Q1009